Terminal Aerodrome Forecast
Issued by NWS Cleveland, OH

Home | Current Version | Previous Version | Graphics & Text | Print | Product List | Glossary Off
Versions: 1 2 3 4 5 6 7 8 9 10 11 12 13 14 15 16 17

488
FTUS41 KCLE 181145
TAFMFD
TAF
KMFD 181145Z 1812/1912 24008KT P6SM OVC025
     FM181600 21008KT P6SM SCT035
     FM190900 18006KT P6SM OVC080=

USA.gov is the U.S. government's official web portal to all federal, state and local government web resources and services.